Time;durP1;ratioP1;P1;durP2;ratioP2;P2;SDS_P1;SDS_P2;PMS_P1;PMS_P2;Temp;Humidity;BMP_temperature;BMP_pressure;BME280_temperature;BME280_humidity;BME280_pressure;Samples;Min_cycle;Max_cycle;Signal;HPM_P1;HPM_P2
2021/10/10 00:00:05;;;;;;;11.32;10.40;;;12.10;99.90;;;12.38;73.70;102731.81;4840945;29;20559;-71
2021/10/10 00:02:39;;;;;;;10.73;9.82;;;12.00;99.90;;;12.13;74.14;102700.41;4841842;29;20053;-71
2021/10/10 00:05:09;;;;;;;10.82;9.70;;;11.90;99.90;;;12.20;74.85;102715.56;4840887;29;20060;-71
2021/10/10 00:07:41;;;;;;;10.57;9.55;;;11.80;99.90;;;12.07;75.24;102695.88;4844291;29;20058;-71
2021/10/10 00:10:11;;;;;;;10.57;9.57;;;11.80;99.90;;;12.17;75.59;102726.13;4845156;29;20046;-71
2021/10/10 00:12:40;;;;;;;9.50;8.80;;;11.80;99.90;;;12.19;75.52;102719.09;4845451;29;20057;-71
2021/10/10 00:15:13;;;;;;;9.15;8.35;;;11.80;99.90;;;12.18;75.42;102718.19;4845301;29;20133;-71
2021/10/10 00:17:41;;;;;;;10.13;9.20;;;11.80;99.90;;;12.25;74.78;102719.22;4845625;29;20046;-71
2021/10/10 00:20:12;;;;;;;9.70;8.90;;;11.90;99.90;;;11.98;73.79;102698.34;4845519;29;20049;-71
2021/10/10 00:22:41;;;;;;;9.82;8.30;;;11.80;99.90;;;12.11;73.40;102726.00;4843976;29;20058;-71
2021/10/10 00:25:10;;;;;;;8.60;8.00;;;11.80;99.90;;;11.99;73.64;102694.84;4844918;29;20407;-71
2021/10/10 00:27:42;;;;;;;8.93;8.23;;;11.70;99.90;;;12.05;73.63;102694.06;4844746;29;20057;-71
2021/10/10 00:30:12;;;;;;;8.57;7.93;;;11.70;99.90;;;12.10;73.69;102692.41;4845135;29;20045;-71
2021/10/10 00:32:40;;;;;;;8.85;8.25;;;11.80;99.90;;;12.21;74.14;102698.78;4844810;29;20082;-71
2021/10/10 00:35:12;;;;;;;9.38;8.65;;;11.80;99.90;;;12.33;73.83;102715.81;4845001;29;20136;-71
2021/10/10 00:37:40;;;;;;;8.98;8.27;;;11.90;99.90;;;12.30;73.63;102706.91;4844939;29;20489;-71
2021/10/10 00:40:13;;;;;;;9.20;8.50;;;11.90;99.90;;;12.29;73.91;102705.13;4844690;29;20485;-72
2021/10/10 00:42:42;;;;;;;9.60;8.80;;;11.90;99.90;;;12.09;73.39;102669.38;4844585;29;20046;-72
2021/10/10 00:45:11;;;;;;;8.85;8.15;;;11.90;99.90;;;12.32;73.75;102710.47;4844492;29;20089;-72
2021/10/10 00:47:43;;;;;;;8.10;7.43;;;11.90;99.90;;;12.30;73.61;102709.56;4844560;29;20053;-71
2021/10/10 00:50:12;;;;;;;9.10;8.40;;;11.90;99.90;;;12.23;73.36;102716.50;4844554;29;20077;-71
2021/10/10 00:52:44;;;;;;;8.48;7.78;;;11.90;99.90;;;12.22;72.72;102703.22;4844438;29;20078;-71
2021/10/10 00:55:13;;;;;;;8.65;7.93;;;11.80;99.90;;;12.13;72.63;102705.72;4844730;29;20081;-71
2021/10/10 00:57:46;;;;;;;8.48;7.70;;;11.80;99.90;;;12.06;73.34;102702.03;4844353;29;20493;-71
2021/10/10 01:00:15;;;;;;;9.55;7.40;;;11.70;99.90;;;12.06;73.59;102698.50;4844333;29;20119;-71
2021/10/10 01:02:44;;;;;;;7.45;6.85;;;11.60;99.90;;;11.98;73.79;102700.13;4844418;29;20077;-71
2021/10/10 01:05:15;;;;;;;8.27;7.57;;;11.60;99.90;;;11.71;74.33;102679.28;4843246;29;20063;-71
2021/10/10 01:07:46;;;;;;;6.97;6.28;;;11.50;99.90;;;11.70;73.61;102696.03;4843282;29;20053;-71
2021/10/10 01:10:15;;;;;;;7.57;6.70;;;11.30;99.90;;;11.46;73.92;102669.88;4844474;29;20110;-71
2021/10/10 01:12:44;;;;;;;7.35;6.75;;;11.20;99.90;;;11.14;74.99;102633.88;4843152;29;20454;-71
2021/10/10 01:15:14;;;;;;;6.78;6.28;;;11.10;99.90;;;9.87;75.06;102400.78;4843969;29;20080;-71
2021/10/10 01:17:43;;;;;;;6.80;6.30;;;11.20;99.90;;;11.57;75.07;102694.84;4844142;29;20060;-71
2021/10/10 01:20:13;;;;;;;7.78;7.03;;;11.20;99.90;;;11.50;75.37;102684.97;4843961;29;20054;-71
2021/10/10 01:22:43;;;;;;;8.48;7.68;;;11.20;99.90;;;11.51;75.77;102684.13;4842931;29;20049;-71
2021/10/10 01:25:11;;;;;;;8.70;7.82;;;11.20;99.90;;;11.55;75.68;102685.09;4844186;29;20106;-72
2021/10/10 01:27:40;;;;;;;8.43;7.72;;;11.20;99.90;;;11.28;75.25;102668.59;4842630;29;20050;-71
2021/10/10 01:30:09;;;;;;;8.02;7.40;;;11.20;99.90;;;11.56;74.98;102695.72;4843725;29;20125;-71
2021/10/10 01:32:38;;;;;;;8.18;7.47;;;11.20;99.90;;;11.52;74.83;102685.91;4842501;29;20050;-71
2021/10/10 01:35:08;;;;;;;8.25;7.65;;;11.20;99.90;;;11.57;74.46;102693.97;4842730;29;20140;-71
2021/10/10 01:37:36;;;;;;;7.80;6.93;;;11.20;99.90;;;11.50;74.42;102690.28;4843967;29;20390;-71
2021/10/10 01:40:08;;;;;;;9.60;7.75;;;11.10;99.90;;;11.50;75.14;102687.63;4843624;29;20132;-71
2021/10/10 01:42:36;;;;;;;7.22;6.63;;;11.10;99.90;;;11.32;74.20;102681.97;4843525;29;20094;-71
2021/10/10 01:45:14;;;;;;;7.10;5.50;;;11.00;99.90;;;11.09;74.85;102672.56;4843890;29;20050;-71
2021/10/10 01:47:42;;;;;;;6.85;6.07;;;10.80;99.90;;;11.12;74.89;102667.38;4843452;29;20061;-71
2021/10/10 01:50:11;;;;;;;6.35;5.93;;;10.80;99.90;;;11.19;74.45;102665.75;4843974;29;20444;-71
2021/10/10 01:52:43;;;;;;;7.18;6.68;;;10.80;99.90;;;11.16;73.90;102663.03;4843632;29;20476;-71
2021/10/10 01:55:14;;;;;;;6.63;6.13;;;10.80;99.90;;;11.19;73.62;102669.28;4843936;29;20050;-71
2021/10/10 01:57:42;;;;;;;6.47;6.03;;;10.80;99.90;;;11.17;73.73;102671.00;4843405;29;20065;-71
2021/10/10 02:00:13;;;;;;;6.50;6.10;;;10.80;99.90;;;10.94;73.53;102631.66;4843532;29;20050;-71
2021/10/10 02:02:42;;;;;;;6.75;6.25;;;10.80;99.90;;;11.16;73.17;102668.31;4843175;29;20495;-71
2021/10/10 02:05:12;;;;;;;6.53;6.03;;;10.80;99.90;;;11.18;73.46;102666.59;4843199;29;20067;-71
2021/10/10 02:07:41;;;;;;;6.85;6.30;;;10.80;99.90;;;9.17;73.58;102319.84;4843635;29;20462;-71
2021/10/10 02:10:11;;;;;;;6.68;6.18;;;10.80;99.90;;;11.20;73.80;102660.50;4843598;29;20102;-71
2021/10/10 02:12:41;;;;;;;6.68;6.05;;;10.80;99.90;;;11.18;73.62;102664.84;4843151;29;20458;-71
2021/10/10 02:15:10;;;;;;;6.55;6.05;;;10.80;99.90;;;11.20;73.59;102660.50;4841911;29;20083;-71
2021/10/10 02:17:38;;;;;;;7.45;6.53;;;10.80;99.90;;;11.23;73.34;102663.19;4843186;29;20049;-71
2021/10/10 02:20:11;;;;;;;6.22;5.72;;;10.80;99.90;;;11.22;73.64;102669.38;4843509;29;20046;-71
2021/10/10 02:22:39;;;;;;;7.15;6.65;;;10.80;99.90;;;11.22;73.40;102660.53;4842955;29;20050;-71
2021/10/10 02:25:09;;;;;;;6.55;6.05;;;10.80;99.90;;;11.25;73.19;102661.47;4842778;29;20552;-71
2021/10/10 02:27:37;;;;;;;6.80;6.30;;;10.90;99.90;;;11.23;73.21;102665.84;4843121;29;20118;-71
2021/10/10 02:30:08;;;;;;;6.18;5.78;;;10.90;99.90;;;11.25;73.04;102666.78;4841087;29;20038;-71
2021/10/10 02:32:38;;;;;;;6.68;6.07;;;10.90;99.90;;;11.25;72.84;102658.81;4841785;29;20050;-71
2021/10/10 02:35:07;;;;;;;6.47;5.85;;;10.90;99.90;;;11.22;73.20;102661.41;4842971;29;20466;-71
2021/10/10 02:37:36;;;;;;;6.57;5.90;;;10.90;99.90;;;11.25;73.26;102657.91;4842680;29;20133;-71
2021/10/10 02:40:06;;;;;;;9.77;8.77;;;10.80;99.90;;;11.06;73.20;102642.50;4842613;29;20054;-71
2021/10/10 02:42:35;;;;;;;;;;;10.80;99.90;;;11.24;73.77;102661.44;4843334;29;20050;-71
2021/10/10 02:45:05;;;;;;;8.27;7.43;;;10.90;99.90;;;11.16;74.17;102657.72;4842949;29;20022;-71
2021/10/10 02:47:34;;;;;;;8.18;7.35;;;10.80;99.90;;;10.82;74.03;102629.59;4842644;29;20551;-71
2021/10/10 02:50:03;;;;;;;8.13;7.43;;;10.60;99.90;;;10.90;75.17;102655.41;4842875;29;20098;-71
2021/10/10 02:52:32;;;;;;;7.15;6.63;;;10.50;99.90;;;10.85;74.94;102653.50;4842738;29;20287;-71
2021/10/10 02:55:00;;;;;;;7.15;6.50;;;10.50;99.90;;;10.71;75.00;102644.34;4842742;29;20046;-71
2021/10/10 02:57:29;;;;;;;7.05;6.55;;;10.40;99.90;;;10.66;75.04;102643.34;4842440;29;20499;-71
2021/10/10 02:59:57;;;;;;;6.78;6.18;;;10.30;99.90;;;10.17;75.40;102567.19;4842441;29;20505;-71
2021/10/10 03:02:26;;;;;;;7.38;6.82;;;10.30;99.90;;;10.54;75.46;102640.41;4842378;29;20049;-71
2021/10/10 03:04:56;;;;;;;6.65;6.05;;;10.20;99.90;;;10.51;76.17;102638.56;4842554;29;20113;-72
2021/10/10 03:07:24;;;;;;;9.32;6.05;;;10.20;99.90;;;10.61;76.10;102644.97;4842348;29;20493;-71
2021/10/10 03:09:52;;;;;;;6.13;5.70;;;10.20;99.90;;;10.71;75.50;102644.34;4842306;29;20054;-71
2021/10/10 03:12:21;;;;;;;6.70;6.18;;;10.30;99.90;;;10.74;74.90;102639.13;4842354;29;20049;-71
2021/10/10 03:14:50;;;;;;;7.40;6.47;;;10.40;99.90;;;10.72;74.75;102638.22;4842190;29;20054;-71
2021/10/10 03:17:18;;;;;;;6.70;6.20;;;10.30;99.90;;;10.80;74.86;102642.81;4841343;29;20065;-71
2021/10/10 03:19:47;;;;;;;6.75;6.25;;;10.40;99.90;;;10.82;74.67;102646.38;4842500;29;20057;-71
2021/10/10 03:22:16;;;;;;;8.13;7.25;;;10.40;99.90;;;10.77;74.43;102634.81;4842249;29;20102;-71
2021/10/10 03:24:45;;;;;;;7.27;6.57;;;10.40;99.90;;;10.82;74.55;102640.19;4842167;29;20154;-71
2021/10/10 03:27:13;;;;;;;6.72;5.90;;;10.40;99.90;;;10.70;74.43;102621.41;4842470;29;20046;-71
2021/10/10 03:29:42;;;;;;;5.40;5.00;;;10.40;99.90;;;10.78;73.54;102638.34;4842184;29;20512;-71
2021/10/10 03:32:11;;;;;;;5.97;5.13;;;10.40;99.90;;;10.79;73.73;102646.31;4842399;29;20077;-71
2021/10/10 03:34:39;;;;;;;5.57;5.18;;;10.40;99.90;;;10.74;73.13;102647.09;4842124;29;20050;-71
2021/10/10 03:37:08;;;;;;;5.00;4.60;;;10.30;99.90;;;10.73;73.46;102643.53;4842095;29;20497;-71
2021/10/10 03:39:37;;;;;;;6.68;6.10;;;10.30;99.90;;;10.73;73.79;102648.81;4842116;29;20046;-71
2021/10/10 03:42:06;;;;;;;6.15;5.65;;;10.40;99.90;;;10.69;73.88;102643.41;4845154;29;20050;-70
2021/10/10 03:44:34;;;;;;;5.80;5.40;;;10.30;99.90;;;10.72;73.57;102646.16;4845774;29;20049;-71
2021/10/10 03:47:03;;;;;;;5.95;5.40;;;10.30;99.90;;;10.68;73.79;102637.22;4845397;29;20145;-71
2021/10/10 03:49:33;;;;;;;5.60;5.03;;;10.30;99.90;;;10.68;73.76;102641.63;4845884;29;20412;-71
2021/10/10 03:52:01;;;;;;;5.97;5.50;;;10.30;99.90;;;10.63;73.87;102635.31;4845763;29;20053;-71
2021/10/10 03:55:04;;;;;;;5.90;5.40;;;10.30;99.90;;;10.63;73.92;102630.03;4845473;29;20046;-71
2021/10/10 03:57:32;;;;;;;5.50;5.07;;;10.30;99.90;;;10.58;74.28;102629.03;4845352;29;20438;-71
2021/10/10 04:00:03;;;;;;;6.80;5.03;;;10.20;99.90;;;10.56;74.39;102628.09;4845717;29;20085;-71
2021/10/10 04:02:39;;;;;;;5.78;5.35;;;10.20;99.90;;;10.55;74.74;102632.50;4845344;29;20282;-71
2021/10/10 04:05:18;;;;;;;5.50;5.07;;;10.20;99.90;;;10.61;74.95;102634.38;4845507;29;20059;-71
2021/10/10 04:07:46;;;;;;;6.28;5.78;;;10.20;99.90;;;10.51;74.15;102619.19;4845288;29;20485;-71
2021/10/10 04:10:14;;;;;;;6.50;6.00;;;10.20;99.90;;;10.53;74.22;102633.34;4845205;29;20552;-71
2021/10/10 04:12:45;;;;;;;6.95;6.40;;;10.20;99.90;;;10.16;74.95;102560.16;4845170;29;20433;-71
2021/10/10 04:15:13;;;;;;;7.00;6.40;;;10.20;99.90;;;10.59;75.23;102636.09;4845599;29;20110;-71
2021/10/10 04:17:43;;;;;;;7.63;7.07;;;10.20;99.90;;;10.64;74.96;102635.38;4845104;29;20048;-71
2021/10/10 04:20:15;;;;;;;8.55;7.85;;;10.30;99.90;;;10.66;74.83;102630.13;4845049;29;20050;-71
2021/10/10 04:22:45;;;;;;;7.97;7.38;;;10.30;99.90;;;10.68;74.46;102641.63;4843964;29;20504;-71
2021/10/10 04:25:14;;;;;;;8.70;7.95;;;10.30;99.90;;;10.63;74.42;102635.31;4844905;29;20046;-71
2021/10/10 04:27:44;;;;;;;7.78;7.00;;;10.30;99.90;;;10.60;74.44;102632.63;4845091;29;20042;-71
2021/10/10 04:30:15;;;;;;;6.88;6.38;;;10.20;99.90;;;10.57;75.20;102633.44;4845441;29;20095;-71
2021/10/10 04:32:44;;;;;;;7.22;6.63;;;10.20;99.90;;;10.56;75.00;102634.31;4844864;29;20475;-71
2021/10/10 04:35:14;;;;;;;7.50;6.82;;;10.20;99.90;;;10.50;75.09;102635.91;4844977;29;20065;-71
2021/10/10 04:37:44;;;;;;;6.20;5.80;;;10.10;99.90;;;10.44;75.38;102631.34;4844734;29;20057;-71
2021/10/10 04:40:13;;;;;;;6.70;6.10;;;10.10;99.90;;;10.10;75.68;102594.38;4844677;29;20056;-71
2021/10/10 04:42:41;;;;;;;6.80;5.80;;;10.00;99.90;;;10.42;75.89;102627.78;4844615;29;20471;-71
2021/10/10 04:45:11;;;;;;;6.10;5.60;;;10.10;99.90;;;10.37;75.71;102615.31;4844694;29;20081;-71
2021/10/10 04:47:40;;;;;;;7.30;6.70;;;10.10;99.90;;;10.44;74.93;102628.72;4844335;29;20054;-71
2021/10/10 04:50:09;;;;;;;8.98;8.27;;;10.10;99.90;;;10.44;74.99;102619.88;4844756;29;20057;-71
2021/10/10 04:52:38;;;;;;;8.77;8.07;;;10.10;99.90;;;10.44;75.13;102626.06;4843611;29;20098;-71
2021/10/10 04:55:08;;;;;;;8.23;7.53;;;10.10;99.90;;;10.12;75.27;102594.41;4844469;29;20052;-71
2021/10/10 04:57:36;;;;;;;10.32;8.85;;;9.90;99.90;;;10.22;75.81;102620.22;4844375;29;20049;-71
2021/10/10 05:00:05;;;;;;;8.95;8.15;;;9.90;99.90;;;10.31;76.19;102616.03;4844336;29;20400;-71
2021/10/10 05:02:35;;;;;;;8.88;8.18;;;9.90;99.90;;;10.27;76.17;102614.19;4843291;29;20084;-71
2021/10/10 05:05:05;;;;;;;10.35;9.48;;;9.90;99.90;;;10.18;76.25;102597.19;4844718;29;20066;-71
2021/10/10 05:07:34;;;;;;;10.37;9.47;;;9.90;99.90;;;10.43;75.29;102618.09;4844287;29;20050;-71
2021/10/10 05:10:02;;;;;;;12.35;11.25;;;10.00;99.90;;;10.38;75.02;102614.44;4844148;29;20295;-71
2021/10/10 05:12:31;;;;;;;11.18;10.18;;;10.10;99.90;;;10.38;74.60;102620.63;4844118;29;20459;-71
2021/10/10 05:15:00;;;;;;;10.82;9.90;;;10.10;99.90;;;10.20;74.18;102609.56;4844408;29;20396;-71
2021/10/10 05:17:28;;;;;;;10.20;8.95;;;10.00;99.90;;;10.04;73.98;102602.97;4844310;29;20054;-71
2021/10/10 05:19:58;;;;;;;10.77;9.77;;;9.70;99.90;;;9.25;75.48;102591.13;4844272;29;20125;-70
2021/10/10 05:22:26;;;;;;;34.80;20.57;;;9.00;99.90;;;9.07;77.85;102587.97;4844219;29;20054;-71
2021/10/10 05:24:57;;;;;;;26.45;19.27;;;8.70;99.90;;;9.42;78.76;102591.59;4843881;29;20288;-71
2021/10/10 05:27:26;;;;;;;31.67;20.55;;;9.00;99.90;;;9.66;79.21;102582.59;4843956;29;20508;-71
2021/10/10 05:29:54;;;;;;;28.80;19.63;;;9.20;99.90;;;9.71;79.00;102580.97;4844034;29;20392;-71
2021/10/10 05:32:23;;;;;;;47.25;29.35;;;9.40;99.90;;;9.79;80.04;102584.69;4844062;29;20085;-71
2021/10/10 05:34:51;;;;;;;25.70;18.33;;;9.50;99.90;;;9.91;79.18;102585.00;4843796;29;20076;-71
2021/10/10 05:37:22;;;;;;;30.77;20.85;;;9.60;99.90;;;9.96;78.06;102588.69;4843674;29;20086;-71
2021/10/10 05:39:50;;;;;;;;;;;9.60;99.90;;;9.40;77.79;102483.28;4844354;29;20057;-71
2021/10/10 05:42:22;;;;;;;30.23;19.85;;;9.70;99.90;;;9.36;77.17;102483.16;4843639;29;19936;-71
2021/10/10 05:44:50;;;;;;;22.08;15.52;;;9.80;99.90;;;10.08;77.03;102581.91;4843727;29;20468;-71
2021/10/10 05:47:19;;;;;;;21.10;15.23;;;9.80;99.90;;;10.13;76.31;102585.59;4843385;29;20082;-71
2021/10/10 05:49:47;;;;;;;22.58;14.07;;;9.80;99.90;;;10.17;76.42;102593.66;4843502;29;20049;-71
2021/10/10 05:52:21;;;;;;;22.70;16.40;;;9.80;99.90;;;10.17;76.63;102591.00;4843706;29;20064;-71
2021/10/10 05:54:50;;;;;;;21.08;16.95;;;9.80;99.90;;;10.23;77.27;102599.09;4842428;29;20489;-71
2021/10/10 05:57:22;;;;;;;20.23;15.90;;;9.90;99.90;;;10.19;77.28;102593.69;4842314;29;20553;-71
2021/10/10 05:59:55;;;;;;;19.73;15.95;;;9.90;99.90;;;10.25;77.79;102596.47;4843227;29;20817;-71
2021/10/10 06:02:23;;;;;;;20.50;16.02;;;9.90;99.90;;;10.36;77.87;102593.22;4843549;29;20311;-71
2021/10/10 06:04:52;;;;;;;20.55;15.43;;;10.00;99.90;;;10.46;77.63;102594.34;4843032;29;20054;-71
2021/10/10 06:07:20;;;;;;;16.30;14.57;;;10.10;99.90;;;10.33;77.78;102571.13;4841894;29;20454;-71
2021/10/10 06:09:50;;;;;;;18.65;14.90;;;10.10;99.90;;;10.47;77.80;102594.38;4842924;29;20046;-71
2021/10/10 06:12:19;;;;;;;39.87;26.00;;;10.10;99.90;;;10.81;78.84;102590.75;4843083;29;20060;-71
2021/10/10 06:14:50;;;;;;;55.28;35.25;;;10.50;99.90;;;10.99;79.48;102590.28;4841840;29;20311;-71
2021/10/10 06:17:19;;;;;;;43.97;28.10;;;10.60;99.90;;;11.09;79.20;102598.44;4842040;29;20482;-71
2021/10/10 06:19:48;;;;;;;44.70;31.10;;;10.80;99.90;;;11.20;78.80;102596.91;4842957;29;20500;-71
2021/10/10 06:22:16;;;;;;;49.28;33.53;;;10.90;99.90;;;11.33;78.69;102601.59;4842753;29;20098;-72
2021/10/10 06:24:44;;;;;;;48.35;31.85;;;11.00;99.90;;;11.39;78.68;102601.72;4842993;29;20121;-71
2021/10/10 06:27:17;;;;;;;45.53;31.58;;;11.10;99.90;;;11.44;78.44;102601.81;4843033;29;20439;-71
2021/10/10 06:29:46;;;;;;;30.75;21.60;;;11.10;99.90;;;11.37;77.62;102602.53;4842894;29;20496;-71
2021/10/10 06:32:16;;;;;;;29.42;21.83;;;11.10;99.90;;;11.30;76.95;102596.25;4842773;29;20137;-71
2021/10/10 06:34:45;;;;;;;31.42;23.02;;;11.00;99.90;;;11.17;76.91;102588.91;4842664;29;20050;-71
2021/10/10 06:37:13;;;;;;;30.23;22.38;;;11.00;99.90;;;11.27;76.52;102593.53;4841655;29;20096;-72
2021/10/10 06:39:42;;;;;;;31.42;24.25;;;11.00;99.90;;;11.24;76.58;102596.13;4842628;29;20045;-71
2021/10/10 06:42:10;;;;;;;39.40;26.17;;;10.90;99.90;;;11.17;76.46;102595.97;4842677;29;20480;-71
2021/10/10 06:44:40;;;;;;;43.63;28.65;;;10.80;99.90;;;11.12;76.17;102603.81;4842459;29;20049;-71
2021/10/10 06:47:09;;;;;;;42.67;29.27;;;10.80;99.90;;;11.07;76.16;102601.94;4842682;29;20088;-71
2021/10/10 06:49:37;;;;;;;41.22;27.88;;;10.70;99.90;;;11.12;76.65;102610.84;4842364;29;20098;-71
2021/10/10 06:52:06;;;;;;;36.92;25.42;;;10.70;99.90;;;11.22;76.93;102611.09;4842454;29;20159;-71
2021/10/10 06:54:34;;;;;;;43.85;30.02;;;10.80;99.90;;;11.14;77.06;102614.44;4841218;29;20062;-71
2021/10/10 06:57:03;;;;;;;43.28;29.25;;;10.80;99.90;;;11.36;77.90;102622.84;4842431;29;20137;-71
2021/10/10 06:59:31;;;;;;;38.30;25.98;;;10.90;99.90;;;11.54;78.18;102615.28;4842398;29;20071;-71
2021/10/10 07:02:03;;;;;;;34.30;24.27;;;11.10;99.90;;;11.61;78.54;102622.47;4842633;29;20054;-71
2021/10/10 07:04:32;;;;;;;35.08;24.98;;;11.30;99.90;;;11.70;78.42;102627.09;4842711;29;20038;-71
2021/10/10 07:07:03;;;;;;;33.42;23.65;;;11.40;99.90;;;11.87;78.24;102630.97;4842926;29;20041;-71
2021/10/10 07:09:32;;;;;;;35.60;24.85;;;11.50;99.90;;;12.02;78.22;102625.06;4841147;29;20472;-71
2021/10/10 07:12:00;;;;;;;35.10;24.35;;;11.60;99.90;;;12.19;78.52;102627.13;4842219;29;20050;-71
2021/10/10 07:14:30;;;;;;;31.95;22.77;;;11.80;99.90;;;12.40;78.38;102630.16;4842005;29;20137;-71
2021/10/10 07:16:58;;;;;;;33.45;23.73;;;12.00;99.90;;;12.57;77.72;102630.41;4844770;29;20054;-71
2021/10/10 07:19:36;;;;;;;33.85;24.70;;;12.10;99.90;;;12.76;78.01;102623.59;4845703;29;20045;-71
2021/10/10 07:22:14;;;;;;;30.80;23.65;;;12.40;99.90;;;12.90;77.62;102630.00;4846359;29;20072;-71
2021/10/10 07:25:00;;;;;;;30.90;24.13;;;12.50;99.90;;;13.04;77.85;102629.38;4846069;29;20140;-71
2021/10/10 07:27:29;;;;;;;34.35;24.90;;;12.70;99.90;;;13.27;77.80;102641.22;4845009;29;20110;-71
2021/10/10 07:29:57;;;;;;;30.75;23.25;;;12.90;99.90;;;13.58;77.12;102638.06;4846319;29;20046;-71
2021/10/10 07:32:26;;;;;;;32.17;25.50;;;13.20;99.90;;;13.75;76.47;102642.66;4846072;29;20094;-71
2021/10/10 07:34:55;;;;;;;32.92;26.20;;;13.40;99.90;;;13.76;76.27;102626.72;4845698;29;20077;-71
2021/10/10 07:37:24;;;;;;;36.53;28.47;;;13.50;99.90;;;14.00;76.69;102648.25;4846285;29;20054;-71
2021/10/10 07:39:52;;;;;;;40.72;30.42;;;13.70;99.90;;;14.15;75.81;102656.38;4845442;29;20378;-72
2021/10/10 07:42:22;;;;;;;43.35;32.90;;;13.80;99.90;;;14.38;75.42;102661.97;4845502;29;20053;-71
2021/10/10 07:44:53;;;;;;;48.33;35.25;;;14.10;99.90;;;14.42;74.99;102659.31;4845881;29;20050;-71
2021/10/10 07:47:46;;;;;;;49.55;38.05;;;14.10;99.90;;;14.46;74.73;102645.16;4843969;29;20053;-71
2021/10/10 07:50:20;;;;;;;45.55;34.90;;;14.30;99.90;;;14.58;74.41;102676.31;4845768;29;20053;-71
2021/10/10 07:52:49;;;;;;;37.90;29.60;;;14.30;99.90;;;14.56;74.30;102642.56;4845521;29;20074;-71
2021/10/10 07:55:17;;;;;;;39.80;30.70;;;14.30;99.90;;;14.45;74.64;102639.84;4845417;29;20124;-72
2021/10/10 07:57:46;;;;;;;47.67;34.35;;;14.30;99.90;;;14.52;75.67;102654.09;4845214;29;20054;-72
2021/10/10 08:00:15;;;;;;;50.55;36.95;;;14.20;99.90;;;14.50;75.48;102662.06;4845200;29;20046;-71
2021/10/10 08:02:54;;;;;;;53.13;38.83;;;14.20;99.90;;;14.55;75.46;102654.13;4845482;29;20465;-71
2021/10/10 08:05:27;;;;;;;51.92;37.63;;;14.30;99.90;;;14.78;74.95;102680.06;4845307;29;20084;-72
2021/10/10 08:07:57;;;;;;;53.10;37.42;;;14.40;99.90;;;14.77;74.90;102672.06;4845481;29;20042;-72
2021/10/10 08:10:26;;;;;;;52.78;37.67;;;14.40;99.90;;;14.87;75.17;102673.88;4845024;29;20078;-71
2021/10/10 08:12:54;;;;;;;55.65;39.72;;;14.50;99.90;;;15.04;74.82;102673.09;4845079;29;20065;-71
2021/10/10 08:15:23;;;;;;;59.15;41.10;;;14.60;99.90;;;15.07;74.48;102677.56;4845430;29;20049;-72
2021/10/10 08:17:52;;;;;;;57.50;41.42;;;14.70;99.90;;;15.17;74.40;102679.41;4845021;29;20488;-72
2021/10/10 08:20:21;;;;;;;53.35;39.40;;;14.80;99.90;;;15.26;74.39;102685.69;4844895;29;20057;-72
2021/10/10 08:22:51;;;;;;;55.35;38.67;;;14.90;99.90;;;15.11;74.31;102650.97;4845201;29;20080;-71
2021/10/10 08:25:20;;;;;;;53.55;39.78;;;15.00;99.90;;;15.27;75.11;102682.13;4843789;29;20497;-71
2021/10/10 08:27:48;;;;;;;61.22;41.92;;;15.00;99.90;;;15.32;74.58;102684.84;4843316;29;20053;-71
2021/10/10 08:30:19;;;;;;;58.22;40.97;;;15.00;99.90;;;15.35;74.13;102685.72;4844614;29;20173;-71
2021/10/10 08:32:48;;;;;;;51.58;38.53;;;15.00;99.90;;;15.38;74.03;102680.44;4844886;29;20397;-72
2021/10/10 08:35:17;;;;;;;49.58;37.70;;;15.10;99.90;;;15.42;74.60;102678.69;4844397;29;20515;-72
2021/10/10 08:37:46;;;;;;;52.40;38.75;;;15.10;99.90;;;15.25;75.03;102662.56;4844572;29;20053;-72
2021/10/10 08:40:17;;;;;;;47.50;35.83;;;15.10;99.90;;;15.36;75.35;102676.88;4844591;29;20094;-72
2021/10/10 08:42:49;;;;;;;43.95;34.63;;;15.00;99.90;;;14.87;75.84;102664.13;4844448;29;20042;-71
2021/10/10 08:45:22;;;;;;;48.60;34.35;;;14.70;99.90;;;14.77;77.36;102677.38;4845119;29;20046;-72
2021/10/10 08:47:52;;;;;;;47.88;35.78;;;14.40;99.90;;;14.79;77.63;102671.16;4844314;29;20068;-72
2021/10/10 08:50:23;;;;;;;46.33;37.28;;;14.40;99.90;;;15.17;77.97;102667.00;4844571;29;20560;-71
2021/10/10 08:52:56;;;;;;;48.95;35.40;;;14.70;99.90;;;15.45;77.49;102657.38;4844762;29;20142;-72
2021/10/10 08:55:28;;;;;;;50.33;34.75;;;15.10;99.90;;;15.87;77.15;102668.16;4844239;29;20054;-72
2021/10/10 08:57:57;;;;;;;54.47;39.50;;;15.50;99.90;;;16.06;75.51;102664.69;4844163;29;20531;-72
2021/10/10 09:00:29;;;;;;;55.53;39.45;;;15.70;99.90;;;16.35;75.02;102663.81;4844676;29;20050;-72
2021/10/10 09:02:59;;;;;;;51.63;38.53;;;16.00;99.90;;;16.64;74.01;102676.34;4843083;29;20125;-71
2021/10/10 09:05:28;;;;;;;49.05;37.38;;;16.30;99.90;;;16.91;73.50;102678.97;4844032;29;20046;-72
2021/10/10 09:07:56;;;;;;;56.88;39.70;;;16.60;99.90;;;16.95;72.03;102664.72;4844002;29;20128;-72
2021/10/10 09:10:28;;;;;;;51.13;37.80;;;16.70;99.90;;;17.09;71.65;102672.72;4844273;29;20127;-72
2021/10/10 09:13:06;;;;;;;51.83;36.90;;;16.80;99.90;;;17.01;72.25;102675.38;4843963;29;20061;-72
2021/10/10 09:15:38;;;;;;;54.20;38.03;;;16.70;99.90;;;17.06;72.73;102683.41;4843800;29;20142;-72
2021/10/10 09:18:09;;;;;;;51.72;38.22;;;16.70;99.90;;;17.24;72.43;102682.47;4842667;29;20514;-72
2021/10/10 09:20:42;;;;;;;52.67;38.42;;;16.90;99.90;;;17.23;72.38;102680.69;4844412;29;20050;-72
2021/10/10 09:23:31;;;;;;;49.05;37.17;;;16.90;99.90;;;17.24;72.75;102677.13;4844365;29;20129;-72
2021/10/10 09:26:03;;;;;;;53.80;38.55;;;17.00;99.90;;;17.63;73.61;102693.97;4844244;29;20069;-73
2021/10/10 09:28:34;;;;;;;53.72;38.05;;;17.30;99.90;;;18.07;73.24;102711.59;4844003;29;20046;-72
2021/10/10 09:31:05;;;;;;;52.33;39.38;;;17.60;99.90;;;18.43;72.07;102711.38;4843658;29;20443;-72
2021/10/10 09:33:43;;;;;;;55.00;40.03;;;18.00;99.90;;;18.53;71.19;102681.81;4842708;29;20145;-72
2021/10/10 09:36:19;;;;;;;60.88;41.65;;;18.30;99.90;;;19.02;70.46;102693.00;4843641;29;20390;-72
2021/10/10 09:38:54;;;;;;;59.42;42.97;;;18.70;99.90;;;19.14;70.47;102703.63;4842720;29;20519;-72
2021/10/10 09:41:30;;;;;;;62.88;44.70;;;18.80;99.90;;;19.32;70.23;102711.47;4843497;29;20061;-72
2021/10/10 09:44:17;;;;;;;60.30;42.20;;;19.00;99.90;;;19.63;70.31;102710.22;4843030;29;20052;-72
2021/10/10 09:46:49;;;;;;;60.30;44.72;;;19.30;99.90;;;19.88;69.05;102700.03;4842121;29;20050;-72
2021/10/10 09:49:23;;;;;;;69.15;48.35;;;19.70;99.90;;;20.28;67.31;102725.50;4843432;29;20129;-72
2021/10/10 09:51:53;;;;;;;70.63;47.88;;;20.00;99.90;;;20.39;66.62;102711.88;4843151;29;20053;-72
2021/10/10 09:54:22;;;;;;;64.40;46.92;;;20.20;99.90;;;20.48;66.52;102725.16;4843446;29;20079;-72
2021/10/10 09:57:09;;;;;;;66.13;49.35;;;20.30;99.90;;;20.73;67.11;102717.63;4843375;29;20057;-72
2021/10/10 09:59:38;;;;;;;69.53;50.67;;;20.50;99.90;;;20.80;65.40;102713.91;4843453;29;20046;-72
2021/10/10 10:02:07;;;;;;;67.93;50.05;;;20.60;99.90;;;20.80;64.60;102720.19;4842085;29;20648;-72
2021/10/10 10:04:44;;;;;;;66.82;50.03;;;20.60;99.90;;;20.64;64.45;102711.47;4842140;29;20053;-72
2021/10/10 10:07:13;;;;;;;62.83;46.83;;;20.40;99.90;;;20.85;64.23;102709.34;4843482;29;20053;-72
2021/10/10 10:09:42;;;;;;;67.60;48.47;;;20.60;99.90;;;20.98;63.81;102721.66;4842911;29;20074;-72
2021/10/10 10:12:12;;;;;;;73.32;50.95;;;20.70;99.90;;;20.94;64.11;102717.25;4843569;29;20110;-72
2021/10/10 10:14:40;;;;;;;72.03;51.33;;;20.70;99.90;;;20.98;64.33;102716.28;4842921;29;20111;-72
2021/10/10 10:17:11;;;;;;;69.45;50.17;;;20.70;99.90;;;20.99;64.33;102709.97;4843303;29;20450;-73
2021/10/10 10:19:41;;;;;;;70.63;51.13;;;20.80;99.90;;;21.08;64.53;102709.84;4843234;29;20054;-73